createdAt,value
2019-03-23T00:01:49.436Z,7.38
2019-03-23T00:04:22.267Z,7.18
2019-03-23T00:06:54.426Z,7.23
2019-03-23T00:09:26.533Z,7.48
2019-03-23T00:11:58.883Z,7.40
2019-03-23T00:14:30.728Z,7.07
2019-03-23T00:17:02.903Z,7.00
2019-03-23T00:19:35.232Z,7.02
2019-03-23T00:22:07.501Z,7.18
2019-03-23T00:24:39.717Z,7.24
2019-03-23T00:27:11.720Z,7.20
2019-03-23T00:29:43.899Z,7.12
2019-03-23T00:32:15.788Z,7.06
2019-03-23T00:34:49.877Z,7.08
2019-03-23T00:37:21.895Z,7.20
2019-03-23T00:39:53.761Z,7.05
2019-03-23T00:42:27.117Z,6.94
2019-03-23T00:44:58.958Z,6.51
2019-03-23T00:47:31.073Z,6.52
2019-03-23T00:50:03.575Z,6.37
2019-03-23T00:52:35.686Z,6.45
2019-03-23T00:55:07.829Z,6.61
2019-03-23T00:57:39.971Z,6.43
2019-03-23T01:00:12.583Z,6.39
2019-03-23T01:02:44.852Z,6.32
2019-03-23T01:05:17.117Z,6.50
2019-03-23T01:07:49.449Z,6.68
2019-03-23T01:10:21.460Z,6.56
2019-03-23T01:12:53.720Z,6.71
2019-03-23T01:15:25.787Z,6.76
2019-03-23T01:17:57.966Z,6.98
2019-03-23T01:20:30.013Z,7.16
2019-03-23T01:23:02.406Z,7.07
2019-03-23T01:25:34.475Z,6.81
2019-03-23T01:28:06.701Z,6.98
2019-03-23T01:30:38.634Z,7.04
2019-03-23T01:33:10.722Z,7.12
2019-03-23T01:35:42.843Z,7.18
2019-03-23T01:38:14.960Z,7.24
2019-03-23T01:40:46.974Z,7.19
2019-03-23T01:43:19.104Z,7.01
2019-03-23T01:45:51.437Z,6.67
2019-03-23T01:48:23.394Z,6.67
2019-03-23T01:50:55.606Z,6.75
2019-03-23T01:53:27.586Z,6.71
2019-03-23T01:56:00.047Z,6.63
2019-03-23T01:58:33.423Z,6.68
2019-03-23T02:01:05.603Z,6.68
2019-03-23T02:03:37.666Z,6.90
2019-03-23T02:06:09.859Z,6.98
2019-03-23T02:08:42.114Z,6.96
2019-03-23T02:11:15.699Z,7.05
2019-03-23T02:13:47.838Z,7.17
2019-03-23T02:16:19.948Z,7.10
2019-03-23T02:18:52.013Z,6.87
2019-03-23T02:21:24.039Z,6.55
2019-03-23T02:23:55.989Z,6.69
2019-03-23T02:26:27.886Z,6.61
2019-03-23T02:28:59.900Z,6.26
2019-03-23T02:31:31.861Z,6.29
2019-03-23T02:34:04.263Z,6.24
2019-03-23T02:36:36.233Z,6.23
2019-03-23T02:39:09.283Z,6.13
2019-03-23T02:41:41.397Z,6.19
2019-03-23T02:44:14.387Z,6.45
2019-03-23T02:46:46.719Z,6.26
2019-03-23T02:49:18.923Z,6.26
2019-03-23T02:51:50.996Z,6.31
2019-03-23T02:54:23.582Z,6.19
2019-03-23T02:56:55.735Z,6.12
2019-03-23T02:59:27.925Z,6.27
2019-03-23T03:02:00.076Z,6.38
2019-03-23T03:04:32.323Z,6.23
2019-03-23T03:07:04.195Z,6.02
2019-03-23T03:09:36.142Z,6.40
2019-03-23T03:12:08.152Z,6.46
2019-03-23T03:14:40.885Z,6.44
2019-03-23T03:17:13.023Z,6.48
2019-03-23T03:19:45.702Z,6.71
2019-03-23T03:22:18.281Z,6.96
2019-03-23T03:24:50.463Z,6.93
2019-03-23T03:27:22.457Z,6.76
2019-03-23T03:29:54.431Z,6.38
2019-03-23T03:32:26.455Z,6.31
2019-03-23T03:34:58.398Z,6.64
2019-03-23T03:37:30.679Z,6.78
2019-03-23T03:40:02.832Z,6.79
2019-03-23T03:42:35.085Z,6.60
2019-03-23T03:45:07.464Z,6.57
2019-03-23T03:47:41.268Z,6.51
2019-03-23T03:50:13.172Z,6.48
2019-03-23T03:52:46.068Z,6.54
2019-03-23T03:55:18.243Z,6.48
2019-03-23T03:57:50.775Z,6.36
2019-03-23T04:00:23.468Z,6.34
2019-03-23T04:02:55.660Z,6.18
2019-03-23T04:05:27.756Z,6.27
2019-03-23T04:08:11.212Z,6.24
2019-03-23T04:10:34.744Z,6.26
2019-03-23T04:13:06.896Z,6.38
2019-03-23T04:15:39.369Z,6.32
2019-03-23T04:18:11.738Z,6.36
2019-03-23T04:20:44.491Z,6.53
2019-03-23T04:23:16.662Z,6.46
2019-03-23T04:25:48.694Z,6.53
2019-03-23T04:28:20.949Z,6.25
2019-03-23T04:30:53.102Z,6.32
2019-03-23T04:33:25.259Z,6.13
2019-03-23T04:35:57.431Z,6.28
2019-03-23T04:38:30.753Z,6.12
2019-03-23T04:41:02.789Z,6.35
2019-03-23T04:43:35.070Z,6.13
2019-03-23T04:46:07.233Z,5.88
2019-03-23T04:48:39.782Z,6.06
2019-03-23T04:51:12.252Z,6.02
2019-03-23T04:53:44.281Z,6.25
2019-03-23T04:56:16.340Z,6.39
2019-03-23T04:58:48.522Z,6.39
2019-03-23T05:01:20.704Z,6.38
2019-03-23T05:03:53.081Z,6.55
2019-03-23T05:06:25.276Z,6.29
2019-03-23T05:08:57.669Z,6.23
2019-03-23T05:11:29.905Z,6.14
2019-03-23T05:14:02.032Z,6.15
2019-03-23T05:16:34.139Z,6.23
2019-03-23T05:19:06.196Z,6.35
2019-03-23T05:21:38.388Z,6.62
2019-03-23T05:24:10.604Z,6.74
2019-03-23T05:26:42.557Z,6.76
2019-03-23T05:29:14.798Z,6.70
2019-03-23T05:31:47.049Z,6.79
2019-03-23T05:34:19.374Z,6.71
2019-03-23T05:36:52.018Z,7.07
2019-03-23T05:39:24.140Z,6.84
2019-03-23T05:41:56.568Z,7.20
2019-03-23T05:44:28.739Z,7.53
2019-03-23T05:47:00.916Z,7.29
2019-03-23T05:49:33.033Z,7.22
2019-03-23T05:52:05.177Z,7.47
2019-03-23T05:54:37.266Z,7.48
2019-03-23T05:57:09.577Z,7.28
2019-03-23T05:59:41.650Z,7.16
2019-03-23T06:02:14.103Z,6.90
2019-03-23T06:04:46.870Z,6.94
2019-03-23T06:07:18.871Z,6.89
2019-03-23T06:09:51.059Z,6.95
2019-03-23T06:12:24.266Z,7.30
2019-03-23T06:14:56.361Z,7.26
2019-03-23T06:17:28.505Z,7.05
2019-03-23T06:20:00.901Z,7.02
2019-03-23T06:22:33.113Z,6.69
2019-03-23T06:25:06.449Z,7.03
2019-03-23T06:27:38.584Z,6.77
2019-03-23T06:30:11.246Z,6.90
2019-03-23T06:32:43.479Z,7.13
2019-03-23T06:35:15.581Z,7.05
2019-03-23T06:37:47.653Z,6.84
2019-03-23T06:40:19.815Z,6.63
2019-03-23T06:42:59.632Z,6.72
2019-03-23T06:45:25.841Z,7.03
2019-03-23T06:47:57.971Z,6.99
2019-03-23T06:50:30.138Z,7.11
2019-03-23T06:53:02.165Z,7.41
2019-03-23T06:55:34.510Z,7.60
2019-03-23T06:58:06.540Z,7.69
2019-03-23T07:00:38.448Z,7.82
2019-03-23T07:03:10.558Z,7.79
2019-03-23T07:05:42.835Z,7.40
2019-03-23T07:08:14.697Z,7.18
2019-03-23T07:10:46.692Z,7.55
2019-03-23T07:13:18.852Z,7.59
2019-03-23T07:15:51.296Z,8.29
2019-03-23T07:18:23.835Z,9.18
2019-03-23T07:20:55.889Z,8.75
2019-03-23T07:23:27.890Z,9.00
2019-03-23T07:26:00.045Z,9.08
2019-03-23T07:28:32.280Z,9.85
2019-03-23T07:31:04.719Z,9.91
2019-03-23T07:33:37.165Z,10.60
2019-03-23T07:36:09.560Z,10.41
2019-03-23T07:38:42.477Z,10.18
2019-03-23T07:41:14.589Z,10.33
2019-03-23T07:43:46.679Z,10.42
2019-03-23T07:46:19.056Z,10.25
2019-03-23T07:48:50.906Z,10.34
2019-03-23T07:51:23.246Z,10.56
2019-03-23T07:53:55.284Z,10.71
2019-03-23T07:56:27.303Z,10.98
2019-03-23T07:58:59.749Z,12.19
2019-03-23T08:01:31.760Z,13.05
2019-03-23T08:04:03.807Z,13.84
2019-03-23T08:06:35.728Z,14.46
2019-03-23T08:09:08.163Z,14.57
2019-03-23T08:11:40.319Z,15.54
2019-03-23T08:14:12.435Z,15.13
2019-03-23T08:16:44.848Z,15.43
2019-03-23T08:19:17.118Z,15.09
2019-03-23T08:21:49.316Z,15.11
2019-03-23T08:24:21.378Z,15.64
2019-03-23T08:26:53.875Z,15.28
2019-03-23T08:29:25.957Z,14.96
2019-03-23T08:31:58.220Z,15.75
2019-03-23T08:34:30.442Z,16.45
2019-03-23T08:37:02.621Z,14.39
2019-03-23T08:39:35.152Z,14.74
2019-03-23T08:42:07.201Z,16.03
2019-03-23T08:44:39.344Z,16.03
2019-03-23T08:47:11.544Z,15.45
2019-03-23T08:49:43.837Z,15.60
2019-03-23T08:52:15.996Z,15.20
2019-03-23T08:54:48.156Z,14.37
2019-03-23T08:57:20.171Z,14.37
2019-03-23T08:59:52.355Z,15.02
2019-03-23T09:02:24.560Z,15.25
2019-03-23T09:04:57.020Z,15.27
2019-03-23T09:07:29.873Z,15.21
2019-03-23T09:10:02.036Z,16.48
2019-03-23T09:12:34.293Z,15.30
2019-03-23T09:15:07.135Z,14.96
2019-03-23T09:17:39.156Z,14.82
2019-03-23T09:20:12.691Z,15.94
2019-03-23T09:22:45.536Z,15.30
2019-03-23T09:25:17.886Z,14.62
2019-03-23T09:27:49.952Z,14.41
2019-03-23T09:30:22.174Z,14.74
2019-03-23T09:32:54.181Z,15.81
2019-03-23T09:35:26.972Z,15.92
2019-03-23T09:37:59.117Z,16.39
2019-03-23T09:40:31.065Z,15.56
2019-03-23T09:43:03.165Z,16.13
2019-03-23T09:45:35.183Z,16.34
2019-03-23T09:48:07.236Z,15.97
2019-03-23T09:50:39.216Z,16.40
2019-03-23T09:53:11.268Z,16.10
2019-03-23T09:55:43.263Z,15.85
2019-03-23T09:58:15.377Z,16.01
2019-03-23T10:00:47.801Z,16.08
2019-03-23T10:03:20.139Z,16.23
2019-03-23T10:05:52.444Z,16.31
2019-03-23T10:08:24.892Z,16.88
2019-03-23T10:10:56.921Z,16.56
2019-03-23T10:13:29.964Z,17.13
2019-03-23T10:16:02.120Z,16.40
2019-03-23T10:18:34.083Z,17.04
2019-03-23T10:21:06.412Z,17.07
2019-03-23T10:23:38.479Z,16.67
2019-03-23T10:26:10.719Z,17.08
2019-03-23T10:28:42.957Z,17.95
2019-03-23T10:31:15.063Z,18.03
2019-03-23T10:33:47.064Z,17.09
2019-03-23T10:36:19.193Z,17.04
2019-03-23T10:38:51.252Z,18.01
2019-03-23T10:41:23.558Z,17.98
2019-03-23T10:43:55.509Z,17.84
2019-03-23T10:46:27.911Z,18.39
2019-03-23T10:49:00.097Z,18.96
2019-03-23T10:51:32.134Z,19.58
2019-03-23T10:54:04.456Z,18.72
2019-03-23T10:56:36.427Z,18.67
2019-03-23T10:59:09.156Z,19.15
2019-03-23T11:01:41.383Z,19.11
2019-03-23T11:04:13.417Z,19.20
2019-03-23T11:06:45.540Z,18.74
2019-03-23T11:09:17.483Z,19.40
2019-03-23T11:11:49.875Z,19.49
2019-03-23T11:14:21.831Z,19.33
2019-03-23T11:16:54.039Z,18.89
2019-03-23T11:19:26.226Z,19.31
2019-03-23T11:21:58.452Z,19.69
2019-03-23T11:24:31.596Z,19.49
2019-03-23T11:27:03.832Z,19.47
2019-03-23T11:29:35.892Z,19.29
2019-03-23T11:32:08.204Z,19.30
2019-03-23T11:34:40.207Z,18.87
2019-03-23T11:37:12.483Z,19.88
2019-03-23T11:39:44.654Z,18.69
2019-03-23T11:42:17.623Z,19.44
2019-03-23T11:44:49.974Z,19.67
2019-03-23T11:47:22.042Z,19.41
2019-03-23T11:49:54.302Z,19.96
2019-03-23T11:52:26.284Z,20.28
2019-03-23T11:54:58.809Z,20.69
2019-03-23T11:57:30.829Z,20.61
2019-03-23T12:00:02.750Z,20.68
2019-03-23T12:02:36.388Z,20.34
2019-03-23T12:05:10.997Z,20.23
2019-03-23T12:07:43.136Z,20.64
2019-03-23T12:10:15.602Z,21.00
2019-03-23T12:12:47.927Z,20.75
2019-03-23T12:15:20.186Z,20.85
2019-03-23T12:17:52.433Z,21.31
2019-03-23T12:20:24.394Z,21.25
2019-03-23T12:22:56.577Z,21.59
2019-03-23T12:25:28.891Z,21.91
2019-03-23T12:28:00.902Z,21.62
2019-03-23T12:30:33.363Z,21.83
2019-03-23T12:33:05.853Z,21.65
2019-03-23T12:35:37.947Z,21.92
2019-03-23T12:38:10.180Z,22.00
2019-03-23T12:40:42.467Z,22.19
2019-03-23T12:43:14.610Z,22.21
2019-03-23T12:45:46.919Z,22.51
2019-03-23T12:48:19.336Z,22.18
2019-03-23T12:50:51.622Z,22.17
2019-03-23T12:53:23.581Z,22.72
2019-03-23T12:55:55.677Z,21.86
2019-03-23T12:58:27.709Z,22.72
2019-03-23T13:00:59.948Z,23.35
2019-03-23T13:03:31.963Z,23.44
2019-03-23T13:06:04.395Z,23.28
2019-03-23T13:08:37.551Z,23.25
2019-03-23T13:11:09.534Z,23.60
2019-03-23T13:13:41.736Z,22.96
2019-03-23T13:16:13.850Z,23.41
2019-03-23T13:18:45.741Z,23.99
2019-03-23T13:21:19.524Z,24.25
2019-03-23T13:23:51.787Z,24.17
2019-03-23T13:26:24.084Z,24.28
2019-03-23T13:28:56.524Z,24.10
2019-03-23T13:31:28.855Z,23.93
2019-03-23T13:34:00.857Z,23.68
2019-03-23T13:36:32.969Z,23.91
2019-03-23T13:39:07.080Z,24.37
2019-03-23T13:41:46.314Z,24.83
2019-03-23T13:44:18.559Z,24.54
2019-03-23T13:46:51.036Z,24.72
2019-03-23T13:49:23.285Z,24.84
2019-03-23T13:51:55.520Z,24.85
2019-03-23T13:54:27.945Z,24.92
2019-03-23T13:57:00.240Z,24.38
2019-03-23T13:59:32.526Z,24.05
2019-03-23T14:02:04.660Z,23.91
2019-03-23T14:04:36.851Z,23.39
2019-03-23T14:07:09.006Z,22.81
2019-03-23T14:09:41.126Z,23.47
2019-03-23T14:12:13.387Z,22.84
2019-03-23T14:14:45.619Z,22.57
2019-03-23T14:17:17.757Z,22.23
2019-03-23T14:19:50.010Z,21.90
2019-03-23T14:22:21.971Z,21.97
2019-03-23T14:24:56.110Z,21.92
2019-03-23T14:27:28.667Z,21.49
2019-03-23T14:30:00.761Z,21.60
2019-03-23T14:32:33.288Z,21.32
2019-03-23T14:35:05.319Z,21.49
2019-03-23T14:37:37.471Z,21.58
2019-03-23T14:40:09.661Z,21.34
2019-03-23T14:42:41.983Z,21.08
2019-03-23T14:45:14.336Z,21.02
2019-03-23T14:47:47.430Z,21.28
2019-03-23T14:50:20.025Z,21.29
2019-03-23T14:52:52.555Z,21.37
2019-03-23T14:55:25.077Z,21.42
2019-03-23T14:57:57.180Z,21.33
2019-03-23T15:00:34.861Z,21.09
2019-03-23T15:03:07.173Z,20.98
2019-03-23T15:05:39.188Z,20.78
2019-03-23T15:08:11.145Z,20.95
2019-03-23T15:10:43.150Z,21.02
2019-03-23T15:13:15.444Z,20.88
2019-03-23T15:15:48.523Z,20.73
2019-03-23T15:18:20.421Z,20.65
2019-03-23T15:20:53.088Z,20.53
2019-03-23T15:23:25.156Z,20.56
2019-03-23T15:25:57.078Z,20.36
2019-03-23T15:28:29.092Z,20.31
2019-03-23T15:31:01.272Z,20.19
2019-03-23T15:33:33.120Z,20.18
2019-03-23T15:36:05.084Z,20.18
2019-03-23T15:38:37.577Z,20.08
2019-03-23T15:41:09.720Z,20.09
2019-03-23T15:43:41.809Z,20.06
2019-03-23T15:46:14.047Z,19.97
2019-03-23T15:48:46.022Z,20.11
2019-03-23T15:51:18.321Z,19.93
2019-03-23T15:53:50.299Z,19.95
2019-03-23T15:56:22.178Z,19.91
2019-03-23T15:58:54.781Z,19.80
2019-03-23T16:01:26.705Z,19.71
2019-03-23T16:03:58.661Z,19.68
2019-03-23T16:06:30.745Z,19.67
2019-03-23T16:09:04.625Z,19.51
2019-03-23T16:11:36.905Z,19.54
2019-03-23T16:14:08.999Z,19.36
2019-03-23T16:16:40.964Z,19.35
2019-03-23T16:19:13.223Z,19.32
2019-03-23T16:21:45.164Z,19.21
2019-03-23T16:24:17.547Z,19.18
2019-03-23T16:26:49.840Z,19.15
2019-03-23T16:29:22.759Z,19.06
2019-03-23T16:31:55.006Z,19.01
2019-03-23T16:34:26.989Z,18.88
2019-03-23T16:36:59.480Z,18.75
2019-03-23T16:39:33.511Z,18.28
2019-03-23T16:42:05.913Z,17.72
2019-03-23T16:44:37.922Z,17.36
2019-03-23T16:47:10.232Z,17.09
2019-03-23T16:49:42.234Z,16.93
2019-03-23T16:52:14.684Z,16.61
2019-03-23T16:54:46.962Z,16.63
2019-03-23T16:57:18.952Z,16.27
2019-03-23T16:59:51.621Z,16.32
2019-03-23T17:02:23.723Z,15.79
2019-03-23T17:04:55.914Z,15.99
2019-03-23T17:07:28.016Z,16.23
2019-03-23T17:10:00.069Z,15.89
2019-03-23T17:12:32.308Z,15.29
2019-03-23T17:15:05.169Z,15.45
2019-03-23T17:17:37.696Z,15.18
2019-03-23T17:20:10.777Z,15.09
2019-03-23T17:22:42.744Z,14.84
2019-03-23T17:25:14.993Z,14.71
2019-03-23T17:27:47.436Z,14.63
2019-03-23T17:30:19.968Z,14.21
2019-03-23T17:32:52.005Z,14.34
2019-03-23T17:35:24.277Z,14.39
2019-03-23T17:37:56.520Z,14.33
2019-03-23T17:40:28.911Z,14.06
2019-03-23T17:43:05.806Z,14.01
2019-03-23T17:45:34.811Z,13.74
2019-03-23T17:48:06.882Z,13.59
2019-03-23T17:50:39.511Z,14.05
2019-03-23T17:53:11.741Z,13.72
2019-03-23T17:55:43.755Z,13.79
2019-03-23T17:58:16.223Z,13.91
2019-03-23T18:00:48.571Z,13.93
2019-03-23T18:03:20.798Z,14.06
2019-03-23T18:05:53.260Z,13.73
2019-03-23T18:08:25.594Z,13.60
2019-03-23T18:10:58.221Z,13.43
2019-03-23T18:13:30.331Z,13.19
2019-03-23T18:16:02.946Z,13.16
2019-03-23T18:18:35.483Z,13.35
2019-03-23T18:21:07.462Z,13.36
2019-03-23T18:23:39.811Z,13.43
2019-03-23T18:26:13.331Z,13.03
2019-03-23T18:28:45.574Z,13.06
2019-03-23T18:31:17.914Z,12.82
2019-03-23T18:33:50.317Z,12.57
2019-03-23T18:36:23.145Z,12.74
2019-03-23T18:38:55.182Z,12.27
2019-03-23T18:41:27.104Z,12.57
2019-03-23T18:43:58.020Z,12.18
2019-03-23T18:46:30.234Z,12.72
2019-03-23T18:49:02.314Z,12.84
2019-03-23T18:51:34.500Z,12.63
2019-03-23T18:54:06.936Z,12.86
2019-03-23T18:56:39.295Z,12.56
2019-03-23T18:59:12.337Z,12.82
2019-03-23T19:01:44.505Z,12.54
2019-03-23T19:04:16.556Z,12.54
2019-03-23T19:06:48.673Z,12.44
2019-03-23T19:09:20.968Z,12.32
2019-03-23T19:11:52.933Z,12.20
2019-03-23T19:14:25.144Z,12.09
2019-03-23T19:16:56.940Z,11.93
2019-03-23T19:19:28.880Z,12.13
2019-03-23T19:22:01.099Z,11.97
2019-03-23T19:24:32.997Z,11.94
2019-03-23T19:27:05.467Z,12.06
2019-03-23T19:29:37.485Z,11.84
2019-03-23T19:32:09.852Z,11.55
2019-03-23T19:34:44.357Z,11.53
2019-03-23T19:37:16.425Z,11.02
2019-03-23T19:39:48.615Z,11.03
2019-03-23T19:42:20.891Z,11.10
2019-03-23T19:44:53.453Z,10.73
2019-03-23T19:47:25.601Z,10.66
2019-03-23T19:49:57.767Z,11.15
2019-03-23T19:52:29.927Z,10.92
2019-03-23T19:55:02.454Z,10.08
2019-03-23T19:57:34.557Z,10.08
2019-03-23T20:00:07.629Z,9.87
2019-03-23T20:02:39.581Z,10.37
2019-03-23T20:05:12.701Z,10.41
2019-03-23T20:07:45.037Z,10.15
2019-03-23T20:10:18.005Z,10.18
2019-03-23T20:12:50.098Z,10.22
2019-03-23T20:15:22.373Z,10.20
2019-03-23T20:17:54.744Z,10.28
2019-03-23T20:20:26.764Z,9.67
2019-03-23T20:23:00.548Z,9.78
2019-03-23T20:25:32.764Z,9.69
2019-03-23T20:28:05.237Z,10.01
2019-03-23T20:30:37.551Z,10.04
2019-03-23T20:33:19.057Z,10.01
2019-03-23T20:35:43.652Z,9.74
2019-03-23T20:38:15.904Z,10.19
2019-03-23T20:40:48.039Z,10.05
2019-03-23T20:43:20.114Z,9.84
2019-03-23T20:45:52.494Z,9.98
2019-03-23T20:48:24.462Z,10.01
2019-03-23T20:50:56.564Z,10.07
2019-03-23T20:53:29.063Z,9.85
2019-03-23T20:56:01.318Z,9.84
2019-03-23T20:58:33.572Z,10.02
2019-03-23T21:01:06.334Z,10.05
2019-03-23T21:03:38.966Z,10.25
2019-03-23T21:06:12.625Z,10.21
2019-03-23T21:08:44.973Z,10.00
2019-03-23T21:11:17.289Z,10.20
2019-03-23T21:13:49.331Z,10.21
2019-03-23T21:16:21.214Z,10.21
2019-03-23T21:18:53.623Z,10.30
2019-03-23T21:21:25.676Z,9.95
2019-03-23T21:23:58.103Z,9.80
2019-03-23T21:26:30.303Z,10.14
2019-03-23T21:29:02.444Z,10.21
2019-03-23T21:31:34.463Z,10.10
2019-03-23T21:34:06.538Z,10.13
2019-03-23T21:36:38.786Z,10.36
2019-03-23T21:39:11.249Z,10.29
2019-03-23T21:41:43.979Z,10.39
2019-03-23T21:44:16.155Z,10.23
2019-03-23T21:46:48.387Z,10.10
2019-03-23T21:49:20.419Z,10.03
2019-03-23T21:51:52.761Z,10.03
2019-03-23T21:54:25.041Z,9.87
2019-03-23T21:56:57.248Z,9.66
2019-03-23T21:59:29.573Z,9.70
2019-03-23T22:02:01.981Z,9.59
2019-03-23T22:04:34.107Z,9.56
2019-03-23T22:07:06.468Z,9.72
2019-03-23T22:09:39.904Z,9.55
2019-03-23T22:12:12.180Z,9.35
2019-03-23T22:14:45.486Z,9.21
2019-03-23T22:17:17.660Z,9.28
2019-03-23T22:19:50.648Z,9.38
2019-03-23T22:22:23.917Z,9.54
2019-03-23T22:24:56.163Z,9.42
2019-03-23T22:27:28.364Z,9.34
2019-03-23T22:30:00.580Z,9.38
2019-03-23T22:32:33.881Z,9.35
2019-03-23T22:35:07.551Z,9.22
2019-03-23T22:37:39.710Z,9.37
2019-03-23T22:40:12.650Z,8.99
2019-03-23T22:42:44.794Z,9.13
2019-03-23T22:45:17.006Z,8.90
2019-03-23T22:47:49.025Z,8.91
2019-03-23T22:50:21.173Z,8.83
2019-03-23T22:52:53.319Z,8.91
2019-03-23T22:55:25.297Z,8.73
2019-03-23T22:57:57.959Z,8.77
2019-03-23T23:00:47.627Z,8.88
2019-03-23T23:03:19.972Z,8.90
2019-03-23T23:05:52.126Z,9.16
2019-03-23T23:08:24.363Z,9.00
2019-03-23T23:10:57.332Z,8.65
2019-03-23T23:13:29.787Z,8.80
2019-03-23T23:16:02.013Z,8.64
2019-03-23T23:18:34.110Z,8.68
2019-03-23T23:21:06.427Z,7.97
2019-03-23T23:23:39.010Z,8.40
2019-03-23T23:26:11.177Z,8.46
2019-03-23T23:28:43.746Z,8.68
2019-03-23T23:31:15.653Z,8.50
2019-03-23T23:33:48.300Z,8.54
2019-03-23T23:36:20.475Z,8.30
2019-03-23T23:38:52.908Z,8.08
2019-03-23T23:41:25.159Z,8.17
2019-03-23T23:43:58.298Z,8.24
2019-03-23T23:46:30.573Z,8.26
2019-03-23T23:49:02.776Z,8.06
2019-03-23T23:51:34.756Z,8.02
2019-03-23T23:54:06.903Z,7.94
2019-03-23T23:56:39.466Z,8.02
2019-03-23T23:59:11.882Z,8.08
